Rio Branco, Brazil
Current Conditions -  °F | °C
As of 11:00 AM on Wednesday 22 Oct 2014 (Local Time) from SBRB Reporting Station
Scattered Clouds Scattered Clouds  
Wind Chill: 86°   Ceiling: Unl
Heat Index: 88°   Visibility: 6mi
Dew Point: 66°   Wind: 6mph
Humidity: 51%   Direction: 250°WSW
Pressure: 29.94"   Gusts: NA
Location:  9.98°S, 67.82°W
Report Text: SBRB 221600Z 25005KT 9999 SCT020 30/19 Q1014
Loading
Personal Weather Stations






























Interactive Weather Map
Tropical Storm Tracking
New forecast layout! Learn more

10-Day Weather Forecast

Advertisements
Track Severe Weather on mobile